createdAt,value
2022-12-06T00:00:17.276Z,13.80
2022-12-06T00:01:17.284Z,15.50
2022-12-06T00:02:17.342Z,15.60
2022-12-06T00:03:17.287Z,20.20
2022-12-06T00:04:17.268Z,30.00
2022-12-06T00:05:17.197Z,25.60
2022-12-06T00:06:17.209Z,25.80
2022-12-06T00:07:17.234Z,18.60
2022-12-06T00:08:17.236Z,13.90
2022-12-06T00:09:17.159Z,15.80
2022-12-06T00:10:17.164Z,15.20
2022-12-06T00:11:17.125Z,17.30
2022-12-06T00:12:17.140Z,14.90
2022-12-06T00:13:17.104Z,18.10
2022-12-06T00:14:17.087Z,11.90
2022-12-06T00:15:17.081Z,11.30
2022-12-06T00:16:17.115Z,11.60
2022-12-06T00:17:17.059Z,10.50
2022-12-06T00:18:17.044Z,11.70
2022-12-06T00:19:17.042Z,11.50
2022-12-06T00:20:17.023Z,12.20
2022-12-06T00:21:17.022Z,12.10
2022-12-06T00:22:17.011Z,12.30
2022-12-06T00:23:16.975Z,14.30
2022-12-06T00:24:16.978Z,12.50
2022-12-06T00:25:16.940Z,13.20
2022-12-06T00:26:16.934Z,12.30
2022-12-06T00:27:16.941Z,11.70
2022-12-06T00:28:16.924Z,12.20
2022-12-06T00:29:16.916Z,12.00
2022-12-06T00:30:16.887Z,12.80
2022-12-06T00:31:16.944Z,11.90
2022-12-06T00:32:19.661Z,12.30
2022-12-06T00:33:16.840Z,12.20
2022-12-06T00:34:16.838Z,11.50
2022-12-06T00:35:16.846Z,11.70
2022-12-06T00:36:16.804Z,11.90
2022-12-06T00:37:16.830Z,11.10
2022-12-06T00:38:16.796Z,10.60
2022-12-06T00:39:16.791Z,11.10
2022-12-06T00:40:16.753Z,10.70
2022-12-06T00:41:16.730Z,12.20
2022-12-06T00:42:16.721Z,12.60
2022-12-06T00:43:16.741Z,12.60
2022-12-06T00:44:16.702Z,12.30
2022-12-06T00:45:16.673Z,14.90
2022-12-06T00:46:16.725Z,15.10
2022-12-06T00:47:16.676Z,15.60
2022-12-06T00:48:16.651Z,15.60
2022-12-06T00:49:16.656Z,15.00
2022-12-06T00:50:16.615Z,13.90
2022-12-06T00:51:16.602Z,13.70
2022-12-06T00:52:16.597Z,13.10
2022-12-06T00:53:16.603Z,14.20
2022-12-06T00:54:16.577Z,14.00
2022-12-06T00:55:16.543Z,12.50
2022-12-06T00:56:16.553Z,12.80
2022-12-06T00:57:16.549Z,13.30
2022-12-06T00:58:16.520Z,13.90
2022-12-06T00:59:16.524Z,13.10
2022-12-06T01:00:16.489Z,11.90
2022-12-06T01:01:16.571Z,11.90
2022-12-06T01:02:16.492Z,11.60
2022-12-06T01:03:16.506Z,11.60
2022-12-06T01:04:16.473Z,11.40
2022-12-06T01:05:16.420Z,10.30
2022-12-06T01:06:16.451Z,10.30
2022-12-06T01:07:16.448Z,8.80
2022-12-06T01:08:16.457Z,7.80
2022-12-06T01:09:16.479Z,8.40
2022-12-06T01:10:16.360Z,9.50
2022-12-06T01:11:16.363Z,9.00
2022-12-06T01:12:16.332Z,8.80
2022-12-06T01:13:16.314Z,10.00
2022-12-06T01:14:16.310Z,9.80
2022-12-06T01:15:16.309Z,9.40
2022-12-06T01:16:16.390Z,9.50
2022-12-06T01:17:16.251Z,10.40
2022-12-06T01:18:16.254Z,10.40
2022-12-06T01:19:16.273Z,10.40
2022-12-06T01:20:16.235Z,10.30
2022-12-06T01:21:16.219Z,9.10
2022-12-06T01:22:16.229Z,8.10
2022-12-06T01:23:16.180Z,9.00
2022-12-06T01:24:16.213Z,8.20
2022-12-06T01:25:16.152Z,8.00
2022-12-06T01:26:16.154Z,8.60
2022-12-06T01:27:16.148Z,8.50
2022-12-06T01:28:16.157Z,8.50
2022-12-06T01:29:16.100Z,9.00
2022-12-06T01:30:16.105Z,8.60
2022-12-06T01:31:16.167Z,8.40
2022-12-06T01:32:16.083Z,7.90
2022-12-06T01:33:16.095Z,8.50
2022-12-06T01:34:16.064Z,8.20
2022-12-06T01:35:16.022Z,7.80
2022-12-06T01:36:16.088Z,8.40
2022-12-06T01:37:16.004Z,7.90
2022-12-06T01:38:15.989Z,8.20
2022-12-06T01:39:15.985Z,8.60
2022-12-06T01:40:15.971Z,8.60
2022-12-06T01:41:15.971Z,8.60
2022-12-06T01:42:15.953Z,9.00
2022-12-06T01:43:15.919Z,9.60
2022-12-06T01:44:21.112Z,8.80
2022-12-06T01:45:15.894Z,9.10
2022-12-06T01:46:15.920Z,9.00
2022-12-06T01:47:15.899Z,9.20
2022-12-06T01:48:15.869Z,8.50
2022-12-06T01:49:15.839Z,8.90
2022-12-06T01:50:15.843Z,8.10
2022-12-06T01:51:15.817Z,7.90
2022-12-06T01:52:15.835Z,8.20
2022-12-06T01:53:15.798Z,8.00
2022-12-06T01:54:15.807Z,7.80
2022-12-06T01:55:15.771Z,8.40
2022-12-06T01:56:15.788Z,8.10
2022-12-06T01:57:15.728Z,8.30
2022-12-06T01:58:15.739Z,7.90
2022-12-06T01:59:15.740Z,8.10
2022-12-06T02:00:15.699Z,7.90
2022-12-06T02:01:15.765Z,8.50
2022-12-06T02:02:15.710Z,8.90
2022-12-06T02:03:15.666Z,8.50
2022-12-06T02:04:15.715Z,8.80
2022-12-06T02:05:15.633Z,9.60
2022-12-06T02:06:15.634Z,8.60
2022-12-06T02:07:15.615Z,8.40
2022-12-06T02:08:15.652Z,8.70
2022-12-06T02:09:15.583Z,8.80
2022-12-06T02:10:15.603Z,8.10
2022-12-06T02:11:15.564Z,7.70
2022-12-06T02:12:15.543Z,8.80
2022-12-06T02:13:15.515Z,8.50
2022-12-06T02:14:15.553Z,7.90
2022-12-06T02:15:15.495Z,8.30
2022-12-06T02:16:15.624Z,8.50
2022-12-06T02:17:15.730Z,7.90
2022-12-06T02:18:15.473Z,8.00
2022-12-06T02:19:15.441Z,8.30
2022-12-06T02:20:15.444Z,8.00
2022-12-06T02:21:15.453Z,7.60
2022-12-06T02:22:15.439Z,8.60
2022-12-06T02:23:15.404Z,8.00
2022-12-06T02:24:15.403Z,7.80
2022-12-06T02:25:15.365Z,8.30
2022-12-06T02:26:15.365Z,7.90
2022-12-06T02:27:15.364Z,7.70
2022-12-06T02:28:15.337Z,7.80
2022-12-06T02:29:15.321Z,7.90
2022-12-06T02:30:15.353Z,7.50
2022-12-06T02:31:15.448Z,7.50
2022-12-06T02:32:15.291Z,8.70
2022-12-06T02:33:15.303Z,8.40
2022-12-06T02:34:15.252Z,7.80
2022-12-06T02:35:15.243Z,9.10
2022-12-06T02:36:15.223Z,8.90
2022-12-06T02:37:15.220Z,8.40
2022-12-06T02:38:15.259Z,8.60
2022-12-06T02:39:15.204Z,9.20
2022-12-06T02:40:15.170Z,8.20
2022-12-06T02:41:15.171Z,8.50
2022-12-06T02:42:15.178Z,8.60
2022-12-06T02:43:15.171Z,8.40
2022-12-06T02:44:15.116Z,8.90
2022-12-06T02:45:15.113Z,10.00
2022-12-06T02:46:15.145Z,8.90
2022-12-06T02:47:15.116Z,8.80
2022-12-06T02:48:15.091Z,9.50
2022-12-06T02:49:15.062Z,9.50
2022-12-06T02:50:15.050Z,8.70
2022-12-06T02:51:15.033Z,8.10
2022-12-06T02:52:15.040Z,9.20
2022-12-06T02:53:15.088Z,9.70
2022-12-06T02:54:14.992Z,8.70
2022-12-06T02:55:14.974Z,9.10
2022-12-06T02:56:14.997Z,9.60
2022-12-06T02:57:14.960Z,8.60
2022-12-06T02:58:14.961Z,9.30
2022-12-06T02:59:14.966Z,8.80
2022-12-06T03:00:14.910Z,9.00
2022-12-06T03:01:14.948Z,9.00
2022-12-06T03:02:14.920Z,9.40
2022-12-06T03:03:14.875Z,8.90
2022-12-06T03:04:14.899Z,8.00
2022-12-06T03:05:14.880Z,8.90
2022-12-06T03:06:14.857Z,8.20
2022-12-06T03:07:14.830Z,10.20
2022-12-06T03:08:14.862Z,8.60
2022-12-06T03:09:14.817Z,10.20
2022-12-06T03:10:14.777Z,10.00
2022-12-06T03:11:14.792Z,8.80
2022-12-06T03:12:14.769Z,9.50
2022-12-06T03:13:14.739Z,9.40
2022-12-06T03:14:15.067Z,9.80
2022-12-06T03:15:14.736Z,9.80
2022-12-06T03:16:14.773Z,10.00
2022-12-06T03:17:14.687Z,9.90
2022-12-06T03:18:14.665Z,10.50
2022-12-06T03:19:14.663Z,10.60
2022-12-06T03:20:14.637Z,11.30
2022-12-06T03:21:14.705Z,11.30
2022-12-06T03:22:14.643Z,10.30
2022-12-06T03:23:14.630Z,9.30
2022-12-06T03:24:14.589Z,9.10
2022-12-06T03:25:14.599Z,9.20
2022-12-06T03:26:14.612Z,9.90
2022-12-06T03:27:14.664Z,9.00
2022-12-06T03:28:14.548Z,9.70
2022-12-06T03:29:14.536Z,9.60
2022-12-06T03:30:14.511Z,9.20
2022-12-06T03:31:14.563Z,8.90
2022-12-06T03:32:14.521Z,11.10
2022-12-06T03:33:14.482Z,11.00
2022-12-06T03:34:14.463Z,15.60
2022-12-06T03:35:14.482Z,13.50
2022-12-06T03:36:14.433Z,13.20
2022-12-06T03:37:14.434Z,13.20
2022-12-06T03:38:14.408Z,12.90
2022-12-06T03:39:14.407Z,12.10
2022-12-06T03:40:14.419Z,10.70
2022-12-06T03:41:14.382Z,10.40
2022-12-06T03:42:14.378Z,10.70
2022-12-06T03:43:14.349Z,10.00
2022-12-06T03:44:14.326Z,10.20
2022-12-06T03:45:14.425Z,11.80
2022-12-06T03:46:14.439Z,11.30
2022-12-06T03:47:16.047Z,10.70
2022-12-06T03:48:14.270Z,10.20
2022-12-06T03:49:14.274Z,11.80
2022-12-06T03:50:14.251Z,11.20
2022-12-06T03:51:14.278Z,12.20
2022-12-06T03:52:14.257Z,13.00
2022-12-06T03:53:14.223Z,11.40
2022-12-06T03:54:14.201Z,13.50
2022-12-06T03:55:14.188Z,12.00
2022-12-06T03:56:14.182Z,12.60
2022-12-06T03:57:14.195Z,12.90
2022-12-06T03:58:14.157Z,12.00
2022-12-06T03:59:14.138Z,13.40
2022-12-06T04:00:14.120Z,13.20
2022-12-06T04:01:14.167Z,14.10
2022-12-06T04:02:14.197Z,13.30
2022-12-06T04:03:14.117Z,14.00
2022-12-06T04:04:14.123Z,15.50
2022-12-06T04:05:14.095Z,13.80
2022-12-06T04:06:14.056Z,15.50
2022-12-06T04:07:14.149Z,16.60
2022-12-06T04:08:14.125Z,21.20
2022-12-06T04:09:14.009Z,16.70
2022-12-06T04:10:13.993Z,18.80
2022-12-06T04:11:13.979Z,16.60
2022-12-06T04:12:13.961Z,18.30
2022-12-06T04:13:19.333Z,17.10
2022-12-06T04:14:13.966Z,17.10
2022-12-06T04:15:13.959Z,18.30
2022-12-06T04:16:13.919Z,21.40
2022-12-06T04:17:13.911Z,19.40
2022-12-06T04:18:14.341Z,22.50
2022-12-06T04:19:13.908Z,21.10
2022-12-06T04:20:13.864Z,21.30
2022-12-06T04:21:13.857Z,27.30
2022-12-06T04:22:13.838Z,25.90
2022-12-06T04:23:13.824Z,22.40
2022-12-06T04:24:13.838Z,22.10
2022-12-06T04:25:13.816Z,26.60
2022-12-06T04:26:13.806Z,23.80
2022-12-06T04:27:13.771Z,24.20
2022-12-06T04:28:13.751Z,24.00
2022-12-06T04:29:13.743Z,22.80
2022-12-06T04:30:13.833Z,21.30
2022-12-06T04:31:17.166Z,43.70
2022-12-06T04:32:13.704Z,56.00
2022-12-06T04:33:13.697Z,65.90
2022-12-06T04:34:13.684Z,63.40
2022-12-06T04:35:13.691Z,51.00
2022-12-06T04:36:13.774Z,51.30
2022-12-06T04:37:13.661Z,57.60
2022-12-06T04:38:13.631Z,123.20
2022-12-06T04:39:19.243Z,113.40
2022-12-06T04:40:13.633Z,97.30
2022-12-06T04:41:13.621Z,98.10
2022-12-06T04:42:13.596Z,94.20
2022-12-06T04:43:13.580Z,78.90
2022-12-06T04:44:13.571Z,60.90
2022-12-06T04:45:13.580Z,51.40
2022-12-06T04:46:13.616Z,46.60
2022-12-06T04:47:13.518Z,42.90
2022-12-06T04:48:13.501Z,41.20
2022-12-06T04:49:13.493Z,36.00
2022-12-06T04:50:13.491Z,34.00
2022-12-06T04:51:13.461Z,35.40
2022-12-06T04:52:13.442Z,39.00
2022-12-06T04:53:13.538Z,39.60
2022-12-06T04:54:13.439Z,40.50
2022-12-06T04:55:13.412Z,38.00
2022-12-06T04:56:13.392Z,41.20
2022-12-06T04:57:13.413Z,42.60
2022-12-06T04:58:13.359Z,45.90
2022-12-06T04:59:13.361Z,60.20
2022-12-06T05:00:13.326Z,52.00
2022-12-06T05:01:13.388Z,51.90
2022-12-06T05:02:13.316Z,57.50
2022-12-06T05:03:13.343Z,60.20
2022-12-06T05:04:13.394Z,57.30
2022-12-06T05:05:13.283Z,60.00
2022-12-06T05:06:13.285Z,53.00
2022-12-06T05:07:13.299Z,132.70
2022-12-06T05:08:13.317Z,116.40
2022-12-06T05:09:13.224Z,97.00
2022-12-06T05:10:13.221Z,103.00
2022-12-06T05:11:13.197Z,85.30
2022-12-06T05:12:13.180Z,125.10
2022-12-06T05:13:13.176Z,77.40
2022-12-06T05:14:13.152Z,64.20
2022-12-06T05:15:15.880Z,140.00
2022-12-06T05:16:13.204Z,138.50
2022-12-06T05:17:13.123Z,127.00
2022-12-06T05:18:13.129Z,106.90
2022-12-06T05:19:13.141Z,114.10
2022-12-06T05:20:13.104Z,104.10
2022-12-06T05:21:13.075Z,96.70
2022-12-06T05:22:13.047Z,91.70
2022-12-06T05:23:13.043Z,99.20
2022-12-06T05:24:13.031Z,124.60
2022-12-06T05:25:13.072Z,115.80
2022-12-06T05:26:12.992Z,125.80
2022-12-06T05:27:13.021Z,167.50
2022-12-06T05:28:12.963Z,153.20
2022-12-06T05:29:12.992Z,142.50
2022-12-06T05:30:12.946Z,140.80
2022-12-06T05:31:12.954Z,138.60
2022-12-06T05:32:12.953Z,125.60
2022-12-06T05:33:12.917Z,121.30
2022-12-06T05:34:12.929Z,123.50
2022-12-06T05:35:12.891Z,117.10
2022-12-06T05:36:12.884Z,83.80
2022-12-06T05:37:12.860Z,93.70
2022-12-06T05:38:12.849Z,87.20
2022-12-06T05:39:12.852Z,79.20
2022-12-06T05:40:12.805Z,120.70
2022-12-06T05:41:12.843Z,71.00
2022-12-06T05:42:20.444Z,59.50
2022-12-06T05:43:12.788Z,94.90
2022-12-06T05:44:12.785Z,128.30
2022-12-06T05:45:12.778Z,96.80
2022-12-06T05:46:12.816Z,93.20
2022-12-06T05:47:12.737Z,103.90
2022-12-06T05:48:12.752Z,255.10
2022-12-06T05:49:12.705Z,120.10
2022-12-06T05:50:12.685Z,111.80
2022-12-06T05:51:12.678Z,118.90
2022-12-06T05:52:12.655Z,169.00
2022-12-06T05:53:12.683Z,170.50
2022-12-06T05:54:12.630Z,228.90
2022-12-06T05:55:12.727Z,168.00
2022-12-06T05:56:12.639Z,106.40
2022-12-06T05:57:12.599Z,116.50
2022-12-06T05:58:12.576Z,135.50
2022-12-06T05:59:12.579Z,109.40
2022-12-06T06:00:12.582Z,96.90
2022-12-06T06:01:12.569Z,102.00
2022-12-06T06:02:12.639Z,105.80
2022-12-06T06:03:12.667Z,95.10
2022-12-06T06:04:12.495Z,82.60
2022-12-06T06:05:12.494Z,71.70
2022-12-06T06:06:12.496Z,70.30
2022-12-06T06:07:12.464Z,54.00
2022-12-06T06:08:12.496Z,50.30
2022-12-06T06:09:12.424Z,66.30
2022-12-06T06:10:12.438Z,64.20
2022-12-06T06:11:12.446Z,70.00
2022-12-06T06:12:12.947Z,66.20
2022-12-06T06:13:12.391Z,71.40
2022-12-06T06:14:12.365Z,71.40
2022-12-06T06:15:12.381Z,72.40
2022-12-06T06:16:12.492Z,72.40
2022-12-06T06:17:12.335Z,75.20
2022-12-06T06:18:12.316Z,76.00
2022-12-06T06:19:12.305Z,77.20
2022-12-06T06:20:12.291Z,79.50
2022-12-06T06:21:12.310Z,85.00
2022-12-06T06:22:12.262Z,89.50
2022-12-06T06:23:12.251Z,87.30
2022-12-06T06:24:12.240Z,84.40
2022-12-06T06:25:12.261Z,95.00
2022-12-06T06:26:12.262Z,84.50
2022-12-06T06:27:12.207Z,87.90
2022-12-06T06:28:12.200Z,78.80
2022-12-06T06:29:12.190Z,84.10
2022-12-06T06:30:12.152Z,77.60
2022-12-06T06:31:12.183Z,88.70
2022-12-06T06:32:12.266Z,89.50
2022-12-06T06:33:12.144Z,84.70
2022-12-06T06:34:12.114Z,67.10
2022-12-06T06:35:12.114Z,68.90
2022-12-06T06:36:12.079Z,75.80
2022-12-06T06:37:12.105Z,78.30
2022-12-06T06:38:12.078Z,76.90
2022-12-06T06:39:12.054Z,75.80
2022-12-06T06:40:12.025Z,75.60
2022-12-06T06:41:12.015Z,81.70
2022-12-06T06:42:12.012Z,84.10
2022-12-06T06:43:12.019Z,82.30
2022-12-06T06:44:11.983Z,76.70
2022-12-06T06:45:11.972Z,78.40
2022-12-06T06:46:12.031Z,62.50
2022-12-06T06:47:11.951Z,68.70
2022-12-06T06:48:11.941Z,65.50
2022-12-06T06:49:11.908Z,64.60
2022-12-06T06:50:11.905Z,71.70
2022-12-06T06:51:11.909Z,54.60
2022-12-06T06:52:11.883Z,63.50
2022-12-06T06:53:11.862Z,53.00
2022-12-06T06:54:11.869Z,48.80
2022-12-06T06:55:11.835Z,39.90
2022-12-06T06:56:11.821Z,41.30
2022-12-06T06:57:17.337Z,38.70
2022-12-06T06:58:11.832Z,36.60
2022-12-06T06:59:11.776Z,30.00
2022-12-06T07:00:11.836Z,30.10
2022-12-06T07:01:11.764Z,29.80
2022-12-06T07:02:11.831Z,30.70
2022-12-06T07:03:11.720Z,31.90
2022-12-06T07:04:11.728Z,29.70
2022-12-06T07:05:11.733Z,28.90
2022-12-06T07:06:11.696Z,27.60
2022-12-06T07:07:14.340Z,24.00
2022-12-06T07:08:11.717Z,25.00
2022-12-06T07:09:11.651Z,23.90
2022-12-06T07:10:11.684Z,21.50
2022-12-06T07:11:11.645Z,25.20
2022-12-06T07:12:11.645Z,23.20
2022-12-06T07:13:11.593Z,22.60
2022-12-06T07:14:11.616Z,23.50
2022-12-06T07:15:11.592Z,26.50
2022-12-06T07:16:11.575Z,25.90
2022-12-06T07:17:11.624Z,33.50
2022-12-06T07:18:11.537Z,28.10
2022-12-06T07:19:11.519Z,28.10
2022-12-06T07:20:11.541Z,33.80
2022-12-06T07:21:11.481Z,32.70
2022-12-06T07:22:11.503Z,29.20
2022-12-06T07:23:11.494Z,30.90
2022-12-06T07:24:11.500Z,34.20
2022-12-06T07:25:11.467Z,41.90
2022-12-06T07:26:11.432Z,41.60
2022-12-06T07:27:11.414Z,28.70
2022-12-06T07:28:11.399Z,30.80
2022-12-06T07:29:11.465Z,42.80
2022-12-06T07:30:16.774Z,39.30
2022-12-06T07:31:11.440Z,45.80
2022-12-06T07:32:11.349Z,57.60
2022-12-06T07:33:11.326Z,56.40
2022-12-06T07:34:11.328Z,83.50
2022-12-06T07:35:11.337Z,80.40
2022-12-06T07:36:12.962Z,72.20
2022-12-06T07:37:11.305Z,59.70
2022-12-06T07:38:11.302Z,50.30
2022-12-06T07:39:14.717Z,47.20
2022-12-06T07:40:11.259Z,43.70
2022-12-06T07:41:11.245Z,35.60
2022-12-06T07:42:11.251Z,34.40
2022-12-06T07:43:11.194Z,34.50
2022-12-06T07:44:11.200Z,37.30
2022-12-06T07:45:11.195Z,37.20
2022-12-06T07:46:11.248Z,38.00
2022-12-06T07:47:11.161Z,36.60
2022-12-06T07:48:11.147Z,37.00
2022-12-06T07:49:11.152Z,37.80
2022-12-06T07:50:16.111Z,36.30
2022-12-06T07:51:11.103Z,34.50
2022-12-06T07:52:11.130Z,34.50
2022-12-06T07:53:11.079Z,43.00
2022-12-06T07:54:11.112Z,41.40
2022-12-06T07:55:11.103Z,38.30
2022-12-06T07:56:11.048Z,37.00
2022-12-06T07:57:11.034Z,33.10
2022-12-06T07:58:11.019Z,32.40
2022-12-06T07:59:10.991Z,39.70
2022-12-06T08:00:11.026Z,42.70
2022-12-06T08:01:11.023Z,43.10
2022-12-06T08:02:10.963Z,46.10
2022-12-06T08:03:10.943Z,41.70
2022-12-06T08:04:10.961Z,42.40
2022-12-06T08:05:10.954Z,42.80
2022-12-06T08:06:10.915Z,40.80
2022-12-06T08:07:10.892Z,35.40
2022-12-06T08:08:10.986Z,35.00
2022-12-06T08:09:10.888Z,39.10
2022-12-06T08:10:10.964Z,37.70
2022-12-06T08:11:10.852Z,36.60
2022-12-06T08:12:10.825Z,40.70
2022-12-06T08:13:10.806Z,33.60
2022-12-06T08:14:10.800Z,33.80
2022-12-06T08:15:10.829Z,35.90
2022-12-06T08:16:10.911Z,36.40
2022-12-06T08:17:10.762Z,34.30
2022-12-06T08:18:10.750Z,42.20
2022-12-06T08:19:10.731Z,38.90
2022-12-06T08:20:10.736Z,40.30
2022-12-06T08:21:10.731Z,42.40
2022-12-06T08:22:10.701Z,43.70
2022-12-06T08:23:10.774Z,48.10
2022-12-06T08:24:10.702Z,49.00
2022-12-06T08:25:10.684Z,41.90
2022-12-06T08:26:10.653Z,41.50
2022-12-06T08:27:10.634Z,38.40
2022-12-06T08:28:10.633Z,38.70
2022-12-06T08:29:10.635Z,35.80
2022-12-06T08:30:10.609Z,33.00
2022-12-06T08:31:10.644Z,32.70
2022-12-06T08:32:10.566Z,29.90
2022-12-06T08:33:10.540Z,31.90
2022-12-06T08:34:10.571Z,29.90
2022-12-06T08:35:10.515Z,29.10
2022-12-06T08:36:10.545Z,25.20
2022-12-06T08:37:10.489Z,20.40
2022-12-06T08:38:10.508Z,19.90
2022-12-06T08:39:10.475Z,18.60
2022-12-06T08:40:10.480Z,14.00
2022-12-06T08:41:10.449Z,13.10
2022-12-06T08:42:10.452Z,12.10
2022-12-06T08:43:10.438Z,11.70
2022-12-06T08:44:10.442Z,10.20
2022-12-06T08:45:10.400Z,12.00
2022-12-06T08:46:10.467Z,10.70
2022-12-06T08:47:10.367Z,11.40
2022-12-06T08:48:10.385Z,10.90
2022-12-06T08:49:10.364Z,10.80
2022-12-06T08:50:10.333Z,10.10
2022-12-06T08:51:10.313Z,9.30
2022-12-06T08:52:10.321Z,8.80
2022-12-06T08:53:10.289Z,8.70
2022-12-06T08:54:10.308Z,8.50
2022-12-06T08:55:10.283Z,8.00
2022-12-06T08:56:10.284Z,8.10
2022-12-06T08:57:10.246Z,8.00
2022-12-06T08:58:10.291Z,6.90
2022-12-06T08:59:10.204Z,6.90
2022-12-06T09:00:10.197Z,7.50
2022-12-06T09:01:10.272Z,6.70
2022-12-06T09:02:10.239Z,6.40
2022-12-06T09:03:10.158Z,6.80
2022-12-06T09:04:10.266Z,6.40
2022-12-06T09:05:10.138Z,6.40
2022-12-06T09:06:10.156Z,6.40
2022-12-06T09:07:11.796Z,6.00
2022-12-06T09:08:10.153Z,6.30
2022-12-06T09:09:10.183Z,5.80
2022-12-06T09:10:10.074Z,6.10
2022-12-06T09:11:10.053Z,6.10
2022-12-06T09:12:10.045Z,5.70
2022-12-06T09:13:10.032Z,5.90
2022-12-06T09:14:10.051Z,5.80
2022-12-06T09:15:09.998Z,6.00
2022-12-06T09:16:10.058Z,5.70
2022-12-06T09:17:09.972Z,5.30
2022-12-06T09:18:09.962Z,5.40
2022-12-06T09:19:09.963Z,5.50
2022-12-06T09:20:10.214Z,5.50
2022-12-06T09:21:09.960Z,5.00
2022-12-06T09:22:09.932Z,5.90
2022-12-06T09:23:09.886Z,5.70
2022-12-06T09:24:09.881Z,6.70
2022-12-06T09:25:09.893Z,7.40
2022-12-06T09:26:09.857Z,6.70
2022-12-06T09:27:09.847Z,6.50
2022-12-06T09:28:09.855Z,6.60
2022-12-06T09:29:09.796Z,6.40
2022-12-06T09:30:09.810Z,4.90
2022-12-06T09:31:09.883Z,5.90
2022-12-06T09:32:09.776Z,5.40
2022-12-06T09:33:09.781Z,5.70
2022-12-06T09:34:09.782Z,5.00
2022-12-06T09:35:15.039Z,5.20
2022-12-06T09:36:09.734Z,4.80
2022-12-06T09:37:09.707Z,4.60
2022-12-06T09:38:09.751Z,5.20
2022-12-06T09:39:09.750Z,4.60
2022-12-06T09:40:09.704Z,4.80
2022-12-06T09:41:09.644Z,4.60
2022-12-06T09:42:09.640Z,4.40
2022-12-06T09:43:09.622Z,4.60
2022-12-06T09:44:09.657Z,4.20
2022-12-06T09:45:09.598Z,4.70
2022-12-06T09:46:09.697Z,4.60
2022-12-06T09:47:09.562Z,4.70
2022-12-06T09:48:09.592Z,4.30
2022-12-06T09:49:09.585Z,5.20
2022-12-06T09:50:09.608Z,4.40
2022-12-06T09:51:09.541Z,4.30
2022-12-06T09:52:09.499Z,4.40
2022-12-06T09:53:09.476Z,4.10
2022-12-06T09:54:09.482Z,4.50
2022-12-06T09:55:09.486Z,4.40
2022-12-06T09:56:09.457Z,4.10
2022-12-06T09:57:09.433Z,4.80
2022-12-06T09:58:09.436Z,5.90
2022-12-06T09:59:09.429Z,4.50
2022-12-06T10:00:11.604Z,5.20
2022-12-06T10:01:09.384Z,4.40
2022-12-06T10:02:09.446Z,4.50
2022-12-06T10:03:09.456Z,4.50
2022-12-06T10:04:09.379Z,3.90
2022-12-06T10:05:09.349Z,4.20
2022-12-06T10:06:09.314Z,3.90
2022-12-06T10:07:09.300Z,4.30
2022-12-06T10:08:09.431Z,4.20
2022-12-06T10:09:09.510Z,4.30
2022-12-06T10:10:09.304Z,4.00
2022-12-06T10:11:09.278Z,3.90
2022-12-06T10:12:09.248Z,4.10
2022-12-06T10:13:09.226Z,4.00
2022-12-06T10:14:09.215Z,4.20
2022-12-06T10:15:09.202Z,4.00
2022-12-06T10:16:09.276Z,4.10
2022-12-06T10:17:09.674Z,3.70
2022-12-06T10:18:09.166Z,3.90
2022-12-06T10:19:09.139Z,3.90
2022-12-06T10:20:09.136Z,4.30
2022-12-06T10:21:09.139Z,4.30
2022-12-06T10:22:09.109Z,4.50
2022-12-06T10:23:09.089Z,4.50
2022-12-06T10:24:09.088Z,4.50
2022-12-06T10:25:09.063Z,4.40
2022-12-06T10:26:09.052Z,4.10
2022-12-06T10:27:09.055Z,4.40
2022-12-06T10:28:09.025Z,4.60
2022-12-06T10:29:09.004Z,4.10
2022-12-06T10:30:09.027Z,4.30
2022-12-06T10:31:09.059Z,4.40
2022-12-06T10:32:08.974Z,5.10
2022-12-06T10:33:08.976Z,4.40
2022-12-06T10:34:08.945Z,5.20
2022-12-06T10:35:08.944Z,4.40
2022-12-06T10:36:08.923Z,4.60
2022-12-06T10:37:08.911Z,4.20
2022-12-06T10:38:08.948Z,5.00
2022-12-06T10:39:08.875Z,4.40
2022-12-06T10:40:08.863Z,4.80
2022-12-06T10:41:08.846Z,4.70
2022-12-06T10:42:08.863Z,4.70
2022-12-06T10:43:08.819Z,4.50
2022-12-06T10:44:08.809Z,4.30
2022-12-06T10:45:08.794Z,4.00
2022-12-06T10:46:09.483Z,4.00
2022-12-06T10:47:08.855Z,4.30
2022-12-06T10:48:08.761Z,4.10
2022-12-06T10:49:08.753Z,4.60
2022-12-06T10:50:08.722Z,4.60
2022-12-06T10:51:08.723Z,4.30
2022-12-06T10:52:08.722Z,4.30
2022-12-06T10:53:10.376Z,4.70
2022-12-06T10:54:08.693Z,4.30
2022-12-06T10:55:08.677Z,4.60
2022-12-06T10:56:08.655Z,4.40
2022-12-06T10:57:08.637Z,4.00
2022-12-06T10:58:08.657Z,4.10
2022-12-06T10:59:08.610Z,4.10
2022-12-06T11:00:14.714Z,4.40
2022-12-06T11:01:08.631Z,4.20
2022-12-06T11:02:08.603Z,4.20
2022-12-06T11:03:08.582Z,4.30
2022-12-06T11:04:08.526Z,4.10
2022-12-06T11:05:08.571Z,3.90
2022-12-06T11:06:08.542Z,4.90
2022-12-06T11:07:08.509Z,4.10
2022-12-06T11:08:08.551Z,4.80
2022-12-06T11:09:08.502Z,4.60
2022-12-06T11:10:08.465Z,4.80
2022-12-06T11:11:08.452Z,4.40
2022-12-06T11:12:08.435Z,4.50
2022-12-06T11:13:08.423Z,4.40
2022-12-06T11:14:08.420Z,5.30
2022-12-06T11:15:08.420Z,4.60
2022-12-06T11:16:08.395Z,5.10
2022-12-06T11:17:08.375Z,4.90
2022-12-06T11:18:08.353Z,4.90
2022-12-06T11:19:08.346Z,4.70
2022-12-06T11:20:08.352Z,6.20
2022-12-06T11:21:08.318Z,6.90
2022-12-06T11:22:08.311Z,4.50
2022-12-06T11:23:08.288Z,4.80
2022-12-06T11:24:08.289Z,20.00
2022-12-06T11:25:08.262Z,9.60
2022-12-06T11:26:08.246Z,7.80
2022-12-06T11:27:08.309Z,8.70
2022-12-06T11:28:08.215Z,7.00
2022-12-06T11:29:08.233Z,4.10
2022-12-06T11:30:08.194Z,9.60
2022-12-06T11:31:08.246Z,8.10
2022-12-06T11:32:08.165Z,7.50
2022-12-06T11:33:08.164Z,5.60
2022-12-06T11:34:08.126Z,4.20
2022-12-06T11:35:08.149Z,4.30
2022-12-06T11:36:08.104Z,4.60
2022-12-06T11:37:08.126Z,3.90
2022-12-06T11:38:08.099Z,4.30
2022-12-06T11:39:08.075Z,4.20
2022-12-06T11:40:08.058Z,3.70
2022-12-06T11:41:08.071Z,4.20
2022-12-06T11:42:08.027Z,4.00
2022-12-06T11:43:08.040Z,3.90
2022-12-06T11:44:08.018Z,3.70
2022-12-06T11:45:08.196Z,3.70
2022-12-06T11:46:07.990Z,3.70
2022-12-06T11:47:08.072Z,5.30
2022-12-06T11:48:07.954Z,6.40
2022-12-06T11:49:07.931Z,3.90
2022-12-06T11:50:10.964Z,3.50
2022-12-06T11:51:07.941Z,3.80
2022-12-06T11:52:07.898Z,4.10
2022-12-06T11:53:07.924Z,4.90
2022-12-06T11:54:07.887Z,3.60
2022-12-06T11:55:07.862Z,5.10
2022-12-06T11:56:07.860Z,4.60
2022-12-06T11:57:07.855Z,4.10
2022-12-06T11:58:07.811Z,4.40
2022-12-06T11:59:07.796Z,4.20
2022-12-06T12:00:07.788Z,3.80
2022-12-06T12:01:10.040Z,4.70
2022-12-06T12:02:07.855Z,4.40
2022-12-06T12:03:07.800Z,4.20
2022-12-06T12:04:07.756Z,4.00
2022-12-06T12:05:07.767Z,4.30
2022-12-06T12:06:07.711Z,4.30
2022-12-06T12:07:07.746Z,4.20
2022-12-06T12:08:07.763Z,4.50
2022-12-06T12:09:07.697Z,3.60
2022-12-06T12:10:07.711Z,3.40
2022-12-06T12:11:07.638Z,3.90
2022-12-06T12:12:07.629Z,3.80
2022-12-06T12:13:07.619Z,3.80
2022-12-06T12:14:07.636Z,3.50
2022-12-06T12:15:07.596Z,3.70
2022-12-06T12:16:07.607Z,4.10
2022-12-06T12:17:07.562Z,3.80
2022-12-06T12:18:07.540Z,4.50
2022-12-06T12:19:07.570Z,4.00
2022-12-06T12:20:07.513Z,4.00
2022-12-06T12:21:07.516Z,4.40
2022-12-06T12:22:07.502Z,4.20
2022-12-06T12:23:07.483Z,4.20
2022-12-06T12:24:07.497Z,4.10
2022-12-06T12:25:23.406Z,4.00
2022-12-06T12:26:07.444Z,4.10
2022-12-06T12:27:07.431Z,4.10
2022-12-06T12:28:07.412Z,4.80
2022-12-06T12:29:07.423Z,3.90
2022-12-06T12:30:07.381Z,4.10
2022-12-06T12:31:07.457Z,3.90
2022-12-06T12:32:07.421Z,3.80
2022-12-06T12:33:07.390Z,4.30
2022-12-06T12:34:07.331Z,3.80
2022-12-06T12:35:07.327Z,3.70
2022-12-06T12:36:07.348Z,4.10
2022-12-06T12:37:07.302Z,4.20
2022-12-06T12:38:07.288Z,4.50
2022-12-06T12:39:07.275Z,4.60
2022-12-06T12:40:10.688Z,4.40
2022-12-06T12:41:07.274Z,5.10
2022-12-06T12:42:07.231Z,5.80
2022-12-06T12:43:07.222Z,4.60
2022-12-06T12:44:35.979Z,4.40
2022-12-06T12:45:07.191Z,4.50
2022-12-06T12:46:07.204Z,3.50
2022-12-06T12:47:07.168Z,4.10
2022-12-06T12:48:07.144Z,5.90
2022-12-06T12:49:07.157Z,13.00
2022-12-06T12:50:07.144Z,20.60
2022-12-06T12:51:07.116Z,20.20
2022-12-06T12:52:07.092Z,10.80
2022-12-06T12:53:07.086Z,3.20
2022-12-06T12:54:07.068Z,3.10
2022-12-06T12:55:07.085Z,3.70
2022-12-06T12:56:07.036Z,3.10
2022-12-06T12:57:07.045Z,3.40
2022-12-06T12:58:07.010Z,3.40
2022-12-06T12:59:07.003Z,3.40
2022-12-06T13:00:07.012Z,3.10
2022-12-06T13:01:07.057Z,3.50
2022-12-06T13:02:07.035Z,3.60
2022-12-06T13:03:17.987Z,3.30